sensor_id;sensor_type;location;lat;lon;timestamp;P1;durP1;ratioP1;P2;durP2;ratioP2
817;SDS011;391;51.052;6.954;2022-12-18T00:00:10;395.08;;;126.38;;
817;SDS011;391;51.052;6.954;2022-12-18T00:02:19;402.70;;;135.55;;
817;SDS011;391;51.052;6.954;2022-12-18T00:04:24;398.60;;;127.85;;
817;SDS011;391;51.052;6.954;2022-12-18T00:06:29;400.40;;;137.07;;
817;SDS011;391;51.052;6.954;2022-12-18T00:08:34;402.17;;;132.60;;
817;SDS011;391;51.052;6.954;2022-12-18T00:10:39;394.65;;;124.43;;
817;SDS011;391;51.052;6.954;2022-12-18T00:12:42;394.88;;;128.80;;
817;SDS011;391;51.052;6.954;2022-12-18T00:14:45;406.67;;;130.68;;
817;SDS011;391;51.052;6.954;2022-12-18T00:16:49;407.58;;;128.35;;
817;SDS011;391;51.052;6.954;2022-12-18T00:18:53;404.58;;;131.10;;
817;SDS011;391;51.052;6.954;2022-12-18T00:21:00;402.95;;;123.72;;
817;SDS011;391;51.052;6.954;2022-12-18T00:23:05;422.30;;;144.95;;
817;SDS011;391;51.052;6.954;2022-12-18T00:25:09;400.65;;;126.70;;
817;SDS011;391;51.052;6.954;2022-12-18T00:27:13;388.52;;;118.32;;
817;SDS011;391;51.052;6.954;2022-12-18T00:29:17;397.10;;;132.98;;
817;SDS011;391;51.052;6.954;2022-12-18T00:31:21;407.73;;;132.65;;
817;SDS011;391;51.052;6.954;2022-12-18T00:33:27;401.10;;;133.13;;
817;SDS011;391;51.052;6.954;2022-12-18T00:35:31;398.38;;;127.78;;
817;SDS011;391;51.052;6.954;2022-12-18T00:37:34;411.65;;;137.18;;
817;SDS011;391;51.052;6.954;2022-12-18T00:39:39;407.25;;;132.30;;
817;SDS011;391;51.052;6.954;2022-12-18T00:41:42;410.05;;;134.40;;
817;SDS011;391;51.052;6.954;2022-12-18T00:44:05;390.35;;;127.90;;
817;SDS011;391;51.052;6.954;2022-12-18T00:46:09;404.23;;;136.95;;
817;SDS011;391;51.052;6.954;2022-12-18T00:48:13;392.98;;;122.28;;
817;SDS011;391;51.052;6.954;2022-12-18T00:50:16;399.52;;;126.50;;
817;SDS011;391;51.052;6.954;2022-12-18T00:52:20;403.25;;;131.88;;
817;SDS011;391;51.052;6.954;2022-12-18T00:54:23;403.00;;;134.20;;
817;SDS011;391;51.052;6.954;2022-12-18T00:56:27;402.67;;;138.35;;
817;SDS011;391;51.052;6.954;2022-12-18T00:58:32;424.52;;;146.40;;
817;SDS011;391;51.052;6.954;2022-12-18T01:00:40;399.88;;;130.45;;
817;SDS011;391;51.052;6.954;2022-12-18T01:02:45;387.65;;;126.75;;
817;SDS011;391;51.052;6.954;2022-12-18T01:04:49;420.35;;;140.63;;
817;SDS011;391;51.052;6.954;2022-12-18T01:06:54;392.70;;;131.00;;
817;SDS011;391;51.052;6.954;2022-12-18T01:08:57;395.20;;;125.88;;
817;SDS011;391;51.052;6.954;2022-12-18T01:11:01;400.95;;;134.38;;
817;SDS011;391;51.052;6.954;2022-12-18T01:13:09;397.85;;;128.77;;
817;SDS011;391;51.052;6.954;2022-12-18T01:15:14;392.17;;;121.43;;
817;SDS011;391;51.052;6.954;2022-12-18T01:17:20;406.27;;;135.65;;
817;SDS011;391;51.052;6.954;2022-12-18T01:19:24;410.17;;;140.85;;
817;SDS011;391;51.052;6.954;2022-12-18T01:21:29;397.65;;;131.25;;
817;SDS011;391;51.052;6.954;2022-12-18T01:23:37;414.58;;;138.18;;
817;SDS011;391;51.052;6.954;2022-12-18T01:25:42;408.98;;;134.88;;
817;SDS011;391;51.052;6.954;2022-12-18T01:27:45;406.35;;;137.25;;
817;SDS011;391;51.052;6.954;2022-12-18T01:29:49;390.35;;;128.00;;
817;SDS011;391;51.052;6.954;2022-12-18T01:31:54;394.70;;;128.73;;
817;SDS011;391;51.052;6.954;2022-12-18T01:34:01;414.77;;;142.85;;
817;SDS011;391;51.052;6.954;2022-12-18T01:36:05;399.52;;;132.63;;
817;SDS011;391;51.052;6.954;2022-12-18T01:38:09;395.65;;;129.68;;
817;SDS011;391;51.052;6.954;2022-12-18T01:40:12;395.10;;;127.07;;
817;SDS011;391;51.052;6.954;2022-12-18T01:42:16;393.20;;;133.07;;
817;SDS011;391;51.052;6.954;2022-12-18T01:46:59;392.25;;;128.05;;
817;SDS011;391;51.052;6.954;2022-12-18T01:49:04;403.02;;;134.90;;
817;SDS011;391;51.052;6.954;2022-12-18T01:51:09;396.45;;;134.65;;
817;SDS011;391;51.052;6.954;2022-12-18T01:53:15;414.38;;;143.23;;
817;SDS011;391;51.052;6.954;2022-12-18T01:55:22;415.80;;;140.43;;
817;SDS011;391;51.052;6.954;2022-12-18T01:57:28;402.45;;;134.27;;
817;SDS011;391;51.052;6.954;2022-12-18T01:59:32;404.85;;;134.48;;
817;SDS011;391;51.052;6.954;2022-12-18T02:01:38;401.48;;;133.35;;
817;SDS011;391;51.052;6.954;2022-12-18T02:03:42;411.42;;;141.18;;
817;SDS011;391;51.052;6.954;2022-12-18T02:05:49;391.10;;;129.13;;
817;SDS011;391;51.052;6.954;2022-12-18T02:08:04;394.27;;;133.45;;
817;SDS011;391;51.052;6.954;2022-12-18T02:10:14;410.88;;;135.73;;
817;SDS011;391;51.052;6.954;2022-12-18T02:12:22;392.63;;;131.00;;
817;SDS011;391;51.052;6.954;2022-12-18T02:14:28;410.63;;;138.63;;
817;SDS011;391;51.052;6.954;2022-12-18T02:16:42;399.15;;;132.00;;
817;SDS011;391;51.052;6.954;2022-12-18T02:18:53;392.90;;;127.70;;
817;SDS011;391;51.052;6.954;2022-12-18T02:21:04;411.20;;;137.32;;
817;SDS011;391;51.052;6.954;2022-12-18T02:23:21;403.30;;;135.93;;
817;SDS011;391;51.052;6.954;2022-12-18T02:25:42;406.63;;;132.70;;
817;SDS011;391;51.052;6.954;2022-12-18T02:28:11;399.85;;;133.63;;
817;SDS011;391;51.052;6.954;2022-12-18T02:30:18;388.52;;;127.50;;
817;SDS011;391;51.052;6.954;2022-12-18T02:32:24;392.98;;;127.63;;
817;SDS011;391;51.052;6.954;2022-12-18T02:34:32;391.77;;;129.77;;
817;SDS011;391;51.052;6.954;2022-12-18T02:36:44;404.77;;;137.18;;
817;SDS011;391;51.052;6.954;2022-12-18T02:38:49;392.05;;;130.38;;
817;SDS011;391;51.052;6.954;2022-12-18T02:40:55;399.48;;;133.70;;
817;SDS011;391;51.052;6.954;2022-12-18T02:43:06;396.52;;;133.40;;
817;SDS011;391;51.052;6.954;2022-12-18T02:45:13;395.98;;;132.95;;
817;SDS011;391;51.052;6.954;2022-12-18T02:47:19;401.65;;;132.93;;
817;SDS011;391;51.052;6.954;2022-12-18T02:49:26;403.20;;;129.77;;
817;SDS011;391;51.052;6.954;2022-12-18T02:51:40;414.35;;;144.55;;
817;SDS011;391;51.052;6.954;2022-12-18T02:53:51;399.50;;;135.20;;
817;SDS011;391;51.052;6.954;2022-12-18T02:56:01;411.48;;;137.02;;
817;SDS011;391;51.052;6.954;2022-12-18T02:58:10;410.17;;;129.15;;
817;SDS011;391;51.052;6.954;2022-12-18T03:00:26;406.45;;;137.65;;
817;SDS011;391;51.052;6.954;2022-12-18T03:02:38;393.55;;;132.45;;
817;SDS011;391;51.052;6.954;2022-12-18T03:04:49;404.52;;;135.85;;
817;SDS011;391;51.052;6.954;2022-12-18T03:07:01;391.00;;;124.72;;
817;SDS011;391;51.052;6.954;2022-12-18T03:09:10;414.45;;;141.05;;
817;SDS011;391;51.052;6.954;2022-12-18T03:11:17;407.70;;;131.82;;
817;SDS011;391;51.052;6.954;2022-12-18T03:13:42;384.20;;;124.53;;
817;SDS011;391;51.052;6.954;2022-12-18T03:15:50;409.75;;;137.27;;
817;SDS011;391;51.052;6.954;2022-12-18T03:17:59;413.88;;;147.10;;
817;SDS011;391;51.052;6.954;2022-12-18T03:20:07;392.85;;;128.85;;
817;SDS011;391;51.052;6.954;2022-12-18T03:22:15;395.02;;;134.80;;
817;SDS011;391;51.052;6.954;2022-12-18T03:24:24;395.20;;;132.90;;
817;SDS011;391;51.052;6.954;2022-12-18T03:26:30;398.33;;;136.15;;
817;SDS011;391;51.052;6.954;2022-12-18T03:28:37;394.80;;;124.60;;
817;SDS011;391;51.052;6.954;2022-12-18T03:30:45;383.65;;;122.70;;
817;SDS011;391;51.052;6.954;2022-12-18T03:32:53;393.30;;;129.77;;
817;SDS011;391;51.052;6.954;2022-12-18T03:35:04;403.48;;;136.25;;
817;SDS011;391;51.052;6.954;2022-12-18T03:37:12;394.83;;;131.18;;
817;SDS011;391;51.052;6.954;2022-12-18T03:39:16;398.02;;;132.88;;
817;SDS011;391;51.052;6.954;2022-12-18T03:41:28;404.92;;;137.60;;
817;SDS011;391;51.052;6.954;2022-12-18T03:43:52;385.25;;;122.32;;
817;SDS011;391;51.052;6.954;2022-12-18T03:46:05;409.00;;;137.60;;
817;SDS011;391;51.052;6.954;2022-12-18T03:48:13;393.80;;;128.70;;
817;SDS011;391;51.052;6.954;2022-12-18T03:50:25;406.10;;;137.90;;
817;SDS011;391;51.052;6.954;2022-12-18T03:52:38;406.95;;;135.30;;
817;SDS011;391;51.052;6.954;2022-12-18T03:54:45;391.00;;;122.93;;
817;SDS011;391;51.052;6.954;2022-12-18T03:56:54;389.42;;;133.38;;
817;SDS011;391;51.052;6.954;2022-12-18T03:59:03;386.63;;;126.22;;
817;SDS011;391;51.052;6.954;2022-12-18T04:01:09;405.45;;;131.90;;
817;SDS011;391;51.052;6.954;2022-12-18T04:03:18;393.77;;;129.05;;
817;SDS011;391;51.052;6.954;2022-12-18T04:05:27;403.70;;;138.35;;
817;SDS011;391;51.052;6.954;2022-12-18T04:07:33;396.30;;;131.80;;
817;SDS011;391;51.052;6.954;2022-12-18T04:09:39;412.60;;;140.55;;
817;SDS011;391;51.052;6.954;2022-12-18T04:11:44;396.48;;;127.07;;
817;SDS011;391;51.052;6.954;2022-12-18T04:13:50;391.33;;;121.40;;
817;SDS011;391;51.052;6.954;2022-12-18T04:15:58;391.52;;;127.63;;
817;SDS011;391;51.052;6.954;2022-12-18T04:18:02;398.25;;;126.72;;
817;SDS011;391;51.052;6.954;2022-12-18T04:20:15;393.15;;;131.30;;
817;SDS011;391;51.052;6.954;2022-12-18T04:22:20;404.65;;;135.05;;
817;SDS011;391;51.052;6.954;2022-12-18T04:24:29;408.48;;;136.93;;
817;SDS011;391;51.052;6.954;2022-12-18T04:26:45;395.35;;;130.15;;
817;SDS011;391;51.052;6.954;2022-12-18T04:28:52;396.90;;;128.05;;
817;SDS011;391;51.052;6.954;2022-12-18T04:30:55;406.27;;;132.02;;
817;SDS011;391;51.052;6.954;2022-12-18T04:32:59;420.70;;;142.40;;
817;SDS011;391;51.052;6.954;2022-12-18T04:35:05;404.63;;;129.07;;
817;SDS011;391;51.052;6.954;2022-12-18T04:37:16;401.30;;;122.75;;
817;SDS011;391;51.052;6.954;2022-12-18T04:39:22;410.17;;;134.65;;
817;SDS011;391;51.052;6.954;2022-12-18T04:41:28;397.73;;;127.15;;
817;SDS011;391;51.052;6.954;2022-12-18T04:43:32;397.65;;;125.32;;
817;SDS011;391;51.052;6.954;2022-12-18T04:45:36;386.52;;;125.55;;
817;SDS011;391;51.052;6.954;2022-12-18T04:47:39;388.42;;;124.57;;
817;SDS011;391;51.052;6.954;2022-12-18T04:49:44;395.38;;;125.57;;
817;SDS011;391;51.052;6.954;2022-12-18T04:51:48;397.95;;;128.38;;
817;SDS011;391;51.052;6.954;2022-12-18T04:53:53;390.63;;;120.90;;
817;SDS011;391;51.052;6.954;2022-12-18T04:56:06;402.45;;;134.10;;
817;SDS011;391;51.052;6.954;2022-12-18T04:58:11;405.23;;;129.60;;
817;SDS011;391;51.052;6.954;2022-12-18T05:00:14;398.25;;;125.40;;
817;SDS011;391;51.052;6.954;2022-12-18T05:02:18;402.45;;;128.55;;
817;SDS011;391;51.052;6.954;2022-12-18T05:04:22;405.35;;;136.43;;
817;SDS011;391;51.052;6.954;2022-12-18T05:06:25;395.85;;;126.50;;
817;SDS011;391;51.052;6.954;2022-12-18T05:08:28;384.70;;;123.72;;
817;SDS011;391;51.052;6.954;2022-12-18T05:10:33;387.52;;;121.90;;
817;SDS011;391;51.052;6.954;2022-12-18T05:12:39;392.40;;;132.13;;
817;SDS011;391;51.052;6.954;2022-12-18T05:14:56;393.85;;;129.10;;
817;SDS011;391;51.052;6.954;2022-12-18T05:17:00;388.23;;;126.13;;
817;SDS011;391;51.052;6.954;2022-12-18T05:19:03;385.25;;;123.55;;
817;SDS011;391;51.052;6.954;2022-12-18T05:21:06;407.63;;;138.45;;
817;SDS011;391;51.052;6.954;2022-12-18T05:23:10;399.88;;;130.95;;
817;SDS011;391;51.052;6.954;2022-12-18T05:25:13;392.58;;;124.45;;
817;SDS011;391;51.052;6.954;2022-12-18T05:27:19;387.05;;;126.30;;
817;SDS011;391;51.052;6.954;2022-12-18T05:29:22;394.63;;;128.38;;
817;SDS011;391;51.052;6.954;2022-12-18T05:31:25;404.60;;;134.70;;
817;SDS011;391;51.052;6.954;2022-12-18T05:33:30;399.90;;;133.43;;
817;SDS011;391;51.052;6.954;2022-12-18T05:35:35;392.67;;;129.10;;
817;SDS011;391;51.052;6.954;2022-12-18T05:37:39;396.92;;;127.18;;
817;SDS011;391;51.052;6.954;2022-12-18T05:39:44;382.90;;;123.85;;
817;SDS011;391;51.052;6.954;2022-12-18T05:41:47;392.70;;;125.10;;
817;SDS011;391;51.052;6.954;2022-12-18T05:43:52;392.75;;;128.85;;
817;SDS011;391;51.052;6.954;2022-12-18T05:45:56;397.33;;;129.93;;
817;SDS011;391;51.052;6.954;2022-12-18T05:47:59;399.77;;;135.45;;
817;SDS011;391;51.052;6.954;2022-12-18T05:50:03;393.77;;;123.35;;
817;SDS011;391;51.052;6.954;2022-12-18T05:52:07;384.00;;;117.75;;
817;SDS011;391;51.052;6.954;2022-12-18T05:54:10;401.50;;;134.73;;
817;SDS011;391;51.052;6.954;2022-12-18T05:56:15;387.10;;;125.72;;
817;SDS011;391;51.052;6.954;2022-12-18T05:58:19;397.67;;;131.15;;
817;SDS011;391;51.052;6.954;2022-12-18T06:00:24;391.50;;;123.22;;
817;SDS011;391;51.052;6.954;2022-12-18T06:02:27;416.92;;;143.20;;
817;SDS011;391;51.052;6.954;2022-12-18T06:04:31;396.13;;;124.53;;
817;SDS011;391;51.052;6.954;2022-12-18T06:06:34;388.60;;;122.50;;
817;SDS011;391;51.052;6.954;2022-12-18T06:08:38;388.95;;;131.65;;
817;SDS011;391;51.052;6.954;2022-12-18T06:10:49;404.08;;;131.48;;
817;SDS011;391;51.052;6.954;2022-12-18T06:12:54;395.13;;;127.88;;
817;SDS011;391;51.052;6.954;2022-12-18T06:14:57;402.80;;;127.75;;
817;SDS011;391;51.052;6.954;2022-12-18T06:17:02;386.70;;;121.13;;
817;SDS011;391;51.052;6.954;2022-12-18T06:19:05;403.92;;;135.15;;
817;SDS011;391;51.052;6.954;2022-12-18T06:21:08;401.08;;;130.02;;
817;SDS011;391;51.052;6.954;2022-12-18T06:23:12;384.05;;;119.45;;
817;SDS011;391;51.052;6.954;2022-12-18T06:25:15;395.90;;;121.22;;
817;SDS011;391;51.052;6.954;2022-12-18T06:27:19;388.77;;;122.40;;
817;SDS011;391;51.052;6.954;2022-12-18T06:29:22;381.80;;;116.72;;
817;SDS011;391;51.052;6.954;2022-12-18T06:31:26;396.40;;;124.35;;
817;SDS011;391;51.052;6.954;2022-12-18T06:33:31;406.40;;;131.77;;
817;SDS011;391;51.052;6.954;2022-12-18T06:35:35;388.73;;;122.72;;
817;SDS011;391;51.052;6.954;2022-12-18T06:37:38;388.33;;;119.70;;
817;SDS011;391;51.052;6.954;2022-12-18T06:39:42;399.45;;;132.75;;
817;SDS011;391;51.052;6.954;2022-12-18T06:41:45;404.33;;;125.90;;
817;SDS011;391;51.052;6.954;2022-12-18T06:43:48;396.05;;;126.50;;
817;SDS011;391;51.052;6.954;2022-12-18T06:45:59;390.38;;;127.68;;
817;SDS011;391;51.052;6.954;2022-12-18T06:48:06;401.83;;;135.82;;
817;SDS011;391;51.052;6.954;2022-12-18T06:50:10;405.33;;;132.63;;
817;SDS011;391;51.052;6.954;2022-12-18T06:52:14;389.23;;;126.38;;
817;SDS011;391;51.052;6.954;2022-12-18T06:54:20;388.13;;;124.20;;
817;SDS011;391;51.052;6.954;2022-12-18T06:56:24;388.10;;;127.95;;
817;SDS011;391;51.052;6.954;2022-12-18T06:58:28;400.88;;;130.48;;
817;SDS011;391;51.052;6.954;2022-12-18T07:00:31;394.23;;;132.23;;
817;SDS011;391;51.052;6.954;2022-12-18T07:02:35;399.33;;;135.50;;
817;SDS011;391;51.052;6.954;2022-12-18T07:04:38;396.40;;;132.70;;
817;SDS011;391;51.052;6.954;2022-12-18T07:06:43;414.52;;;144.60;;
817;SDS011;391;51.052;6.954;2022-12-18T07:08:47;384.65;;;127.00;;
817;SDS011;391;51.052;6.954;2022-12-18T07:10:51;381.73;;;121.32;;
817;SDS011;391;51.052;6.954;2022-12-18T07:12:57;385.65;;;126.47;;
817;SDS011;391;51.052;6.954;2022-12-18T07:15:00;396.10;;;129.35;;
817;SDS011;391;51.052;6.954;2022-12-18T07:17:04;390.08;;;124.07;;
817;SDS011;391;51.052;6.954;2022-12-18T07:19:07;391.48;;;123.70;;
817;SDS011;391;51.052;6.954;2022-12-18T07:21:12;409.58;;;133.88;;
817;SDS011;391;51.052;6.954;2022-12-18T07:23:20;394.38;;;122.68;;
817;SDS011;391;51.052;6.954;2022-12-18T07:25:23;396.00;;;131.30;;
817;SDS011;391;51.052;6.954;2022-12-18T07:27:26;402.48;;;134.88;;
817;SDS011;391;51.052;6.954;2022-12-18T07:29:30;391.63;;;128.63;;
817;SDS011;391;51.052;6.954;2022-12-18T07:31:34;387.05;;;124.90;;
817;SDS011;391;51.052;6.954;2022-12-18T07:33:37;400.08;;;135.13;;
817;SDS011;391;51.052;6.954;2022-12-18T07:35:41;401.42;;;137.35;;
817;SDS011;391;51.052;6.954;2022-12-18T07:37:45;400.77;;;132.65;;
817;SDS011;391;51.052;6.954;2022-12-18T07:39:50;389.48;;;125.53;;
817;SDS011;391;51.052;6.954;2022-12-18T07:41:53;396.35;;;132.43;;
817;SDS011;391;51.052;6.954;2022-12-18T07:44:14;387.30;;;124.65;;
817;SDS011;391;51.052;6.954;2022-12-18T07:46:17;399.02;;;126.97;;
817;SDS011;391;51.052;6.954;2022-12-18T07:48:21;402.98;;;130.40;;
817;SDS011;391;51.052;6.954;2022-12-18T07:50:24;391.65;;;130.18;;
817;SDS011;391;51.052;6.954;2022-12-18T07:52:27;407.20;;;135.27;;
817;SDS011;391;51.052;6.954;2022-12-18T07:54:31;403.40;;;134.35;;
817;SDS011;391;51.052;6.954;2022-12-18T07:56:36;391.20;;;124.50;;
817;SDS011;391;51.052;6.954;2022-12-18T07:58:40;392.60;;;127.03;;
817;SDS011;391;51.052;6.954;2022-12-18T08:00:43;395.33;;;136.63;;
817;SDS011;391;51.052;6.954;2022-12-18T08:02:46;394.02;;;127.60;;
817;SDS011;391;51.052;6.954;2022-12-18T08:04:50;385.50;;;120.85;;
817;SDS011;391;51.052;6.954;2022-12-18T08:06:53;389.13;;;120.00;;
817;SDS011;391;51.052;6.954;2022-12-18T08:08:56;396.10;;;131.20;;
817;SDS011;391;51.052;6.954;2022-12-18T08:11:00;394.35;;;127.03;;
817;SDS011;391;51.052;6.954;2022-12-18T08:13:05;384.65;;;120.43;;
817;SDS011;391;51.052;6.954;2022-12-18T08:15:09;382.70;;;119.75;;
817;SDS011;391;51.052;6.954;2022-12-18T08:17:12;384.05;;;120.25;;
817;SDS011;391;51.052;6.954;2022-12-18T08:19:16;392.67;;;120.63;;
817;SDS011;391;51.052;6.954;2022-12-18T08:21:20;405.60;;;131.15;;
817;SDS011;391;51.052;6.954;2022-12-18T08:23:25;403.83;;;124.97;;
817;SDS011;391;51.052;6.954;2022-12-18T08:25:29;404.75;;;130.82;;
817;SDS011;391;51.052;6.954;2022-12-18T08:27:33;402.75;;;124.25;;
817;SDS011;391;51.052;6.954;2022-12-18T08:29:38;406.35;;;126.22;;
817;SDS011;391;51.052;6.954;2022-12-18T08:31:41;407.52;;;126.70;;
817;SDS011;391;51.052;6.954;2022-12-18T08:33:44;395.17;;;125.75;;
817;SDS011;391;51.052;6.954;2022-12-18T08:35:50;409.50;;;133.95;;
817;SDS011;391;51.052;6.954;2022-12-18T08:37:53;392.70;;;128.23;;
817;SDS011;391;51.052;6.954;2022-12-18T08:39:57;404.85;;;136.48;;
817;SDS011;391;51.052;6.954;2022-12-18T08:42:00;404.33;;;130.73;;
817;SDS011;391;51.052;6.954;2022-12-18T08:44:21;386.55;;;123.85;;
817;SDS011;391;51.052;6.954;2022-12-18T08:46:44;406.73;;;132.43;;
817;SDS011;391;51.052;6.954;2022-12-18T08:48:47;397.38;;;126.28;;
817;SDS011;391;51.052;6.954;2022-12-18T08:50:53;412.75;;;131.52;;
817;SDS011;391;51.052;6.954;2022-12-18T08:52:57;394.80;;;124.45;;
817;SDS011;391;51.052;6.954;2022-12-18T08:55:00;400.88;;;127.90;;
817;SDS011;391;51.052;6.954;2022-12-18T08:57:04;392.10;;;117.75;;
817;SDS011;391;51.052;6.954;2022-12-18T08:59:08;403.83;;;122.50;;
817;SDS011;391;51.052;6.954;2022-12-18T09:01:20;410.88;;;127.88;;
817;SDS011;391;51.052;6.954;2022-12-18T09:03:25;399.55;;;117.30;;
817;SDS011;391;51.052;6.954;2022-12-18T09:05:29;403.48;;;122.45;;
817;SDS011;391;51.052;6.954;2022-12-18T09:07:33;422.73;;;132.98;;
817;SDS011;391;51.052;6.954;2022-12-18T09:09:36;413.98;;;130.32;;
817;SDS011;391;51.052;6.954;2022-12-18T09:11:40;414.10;;;130.93;;
817;SDS011;391;51.052;6.954;2022-12-18T09:13:43;402.50;;;122.57;;
817;SDS011;391;51.052;6.954;2022-12-18T09:15:47;429.00;;;136.70;;
817;SDS011;391;51.052;6.954;2022-12-18T09:17:52;423.35;;;140.07;;
817;SDS011;391;51.052;6.954;2022-12-18T09:19:57;409.63;;;124.97;;
817;SDS011;391;51.052;6.954;2022-12-18T09:22:00;413.20;;;126.50;;
817;SDS011;391;51.052;6.954;2022-12-18T09:24:04;415.55;;;129.98;;
817;SDS011;391;51.052;6.954;2022-12-18T09:26:10;417.60;;;123.43;;
817;SDS011;391;51.052;6.954;2022-12-18T09:28:14;420.88;;;124.78;;
817;SDS011;391;51.052;6.954;2022-12-18T09:30:19;424.48;;;130.63;;
817;SDS011;391;51.052;6.954;2022-12-18T09:32:22;408.10;;;121.47;;
817;SDS011;391;51.052;6.954;2022-12-18T09:34:25;415.67;;;127.95;;
817;SDS011;391;51.052;6.954;2022-12-18T09:36:30;407.67;;;119.00;;
817;SDS011;391;51.052;6.954;2022-12-18T09:38:33;425.52;;;122.95;;
817;SDS011;391;51.052;6.954;2022-12-18T09:40:40;421.42;;;123.53;;
817;SDS011;391;51.052;6.954;2022-12-18T09:42:46;425.98;;;126.93;;
817;SDS011;391;51.052;6.954;2022-12-18T09:44:57;405.05;;;118.03;;
817;SDS011;391;51.052;6.954;2022-12-18T09:47:07;413.27;;;124.80;;
817;SDS011;391;51.052;6.954;2022-12-18T09:49:16;418.95;;;124.35;;
817;SDS011;391;51.052;6.954;2022-12-18T09:51:23;431.08;;;127.30;;
817;SDS011;391;51.052;6.954;2022-12-18T09:53:33;410.27;;;118.15;;
817;SDS011;391;51.052;6.954;2022-12-18T09:55:41;433.10;;;127.35;;
817;SDS011;391;51.052;6.954;2022-12-18T09:57:49;428.42;;;131.35;;
817;SDS011;391;51.052;6.954;2022-12-18T09:59:56;431.05;;;128.48;;
817;SDS011;391;51.052;6.954;2022-12-18T10:02:15;415.10;;;115.38;;
817;SDS011;391;51.052;6.954;2022-12-18T10:04:23;410.55;;;113.22;;
817;SDS011;391;51.052;6.954;2022-12-18T10:06:28;416.98;;;113.97;;
817;SDS011;391;51.052;6.954;2022-12-18T10:08:41;409.92;;;113.90;;
817;SDS011;391;51.052;6.954;2022-12-18T10:10:52;412.90;;;117.10;;
817;SDS011;391;51.052;6.954;2022-12-18T10:13:02;410.00;;;115.07;;
817;SDS011;391;51.052;6.954;2022-12-18T10:15:18;412.65;;;122.18;;
817;SDS011;391;51.052;6.954;2022-12-18T10:17:28;423.27;;;122.53;;
817;SDS011;391;51.052;6.954;2022-12-18T10:19:42;426.73;;;129.30;;
817;SDS011;391;51.052;6.954;2022-12-18T10:21:54;419.55;;;126.85;;
817;SDS011;391;51.052;6.954;2022-12-18T10:24:12;426.80;;;125.88;;
817;SDS011;391;51.052;6.954;2022-12-18T10:26:23;430.80;;;126.35;;
817;SDS011;391;51.052;6.954;2022-12-18T10:28:27;428.33;;;126.72;;
817;SDS011;391;51.052;6.954;2022-12-18T10:30:33;440.30;;;138.95;;
817;SDS011;391;51.052;6.954;2022-12-18T10:32:36;428.95;;;129.38;;
817;SDS011;391;51.052;6.954;2022-12-18T10:34:40;430.85;;;134.27;;
817;SDS011;391;51.052;6.954;2022-12-18T10:36:43;425.95;;;128.35;;
817;SDS011;391;51.052;6.954;2022-12-18T10:38:47;432.45;;;130.05;;
817;SDS011;391;51.052;6.954;2022-12-18T10:40:52;431.50;;;120.32;;
817;SDS011;391;51.052;6.954;2022-12-18T10:43:03;432.98;;;128.50;;
817;SDS011;391;51.052;6.954;2022-12-18T10:45:09;433.35;;;126.80;;
817;SDS011;391;51.052;6.954;2022-12-18T10:47:15;437.70;;;123.53;;
817;SDS011;391;51.052;6.954;2022-12-18T10:49:22;437.05;;;127.97;;
817;SDS011;391;51.052;6.954;2022-12-18T10:51:29;438.52;;;125.75;;
817;SDS011;391;51.052;6.954;2022-12-18T10:53:36;442.02;;;124.75;;
817;SDS011;391;51.052;6.954;2022-12-18T10:55:40;430.30;;;125.05;;
817;SDS011;391;51.052;6.954;2022-12-18T10:57:50;433.17;;;129.95;;
817;SDS011;391;51.052;6.954;2022-12-18T10:59:54;441.30;;;136.07;;
817;SDS011;391;51.052;6.954;2022-12-18T11:01:59;436.77;;;126.03;;
817;SDS011;391;51.052;6.954;2022-12-18T11:04:07;432.73;;;125.43;;
817;SDS011;391;51.052;6.954;2022-12-18T11:06:12;439.15;;;129.13;;
817;SDS011;391;51.052;6.954;2022-12-18T11:08:19;434.17;;;131.38;;
817;SDS011;391;51.052;6.954;2022-12-18T11:10:26;440.92;;;127.85;;
817;SDS011;391;51.052;6.954;2022-12-18T11:12:33;434.95;;;129.18;;
817;SDS011;391;51.052;6.954;2022-12-18T11:14:43;437.00;;;136.07;;
817;SDS011;391;51.052;6.954;2022-12-18T11:16:50;426.90;;;127.53;;
817;SDS011;391;51.052;6.954;2022-12-18T11:19:19;423.90;;;124.47;;
817;SDS011;391;51.052;6.954;2022-12-18T11:21:29;438.75;;;135.25;;
817;SDS011;391;51.052;6.954;2022-12-18T11:23:32;437.30;;;134.25;;
817;SDS011;391;51.052;6.954;2022-12-18T11:25:37;439.40;;;132.55;;
817;SDS011;391;51.052;6.954;2022-12-18T11:27:41;430.33;;;127.53;;
817;SDS011;391;51.052;6.954;2022-12-18T11:29:52;440.88;;;132.57;;
817;SDS011;391;51.052;6.954;2022-12-18T11:32:19;439.92;;;136.30;;
817;SDS011;391;51.052;6.954;2022-12-18T11:34:30;437.77;;;137.52;;
817;SDS011;391;51.052;6.954;2022-12-18T11:36:36;433.58;;;134.85;;
817;SDS011;391;51.052;6.954;2022-12-18T11:38:44;433.13;;;134.13;;
817;SDS011;391;51.052;6.954;2022-12-18T11:40:52;433.25;;;129.88;;
817;SDS011;391;51.052;6.954;2022-12-18T11:43:01;428.38;;;133.15;;
817;SDS011;391;51.052;6.954;2022-12-18T11:45:20;435.85;;;132.57;;
817;SDS011;391;51.052;6.954;2022-12-18T11:47:31;452.85;;;142.88;;
817;SDS011;391;51.052;6.954;2022-12-18T11:49:43;443.10;;;137.82;;
817;SDS011;391;51.052;6.954;2022-12-18T11:51:50;435.35;;;133.40;;
817;SDS011;391;51.052;6.954;2022-12-18T11:53:58;433.40;;;130.60;;
817;SDS011;391;51.052;6.954;2022-12-18T11:56:05;439.60;;;135.43;;
817;SDS011;391;51.052;6.954;2022-12-18T11:58:37;428.90;;;128.63;;
817;SDS011;391;51.052;6.954;2022-12-18T12:00:49;438.23;;;131.77;;
817;SDS011;391;51.052;6.954;2022-12-18T12:03:10;429.45;;;126.32;;
817;SDS011;391;51.052;6.954;2022-12-18T12:05:42;426.52;;;126.50;;
817;SDS011;391;51.052;6.954;2022-12-18T12:07:56;438.35;;;135.23;;
817;SDS011;391;51.052;6.954;2022-12-18T12:10:08;429.75;;;130.48;;
817;SDS011;391;51.052;6.954;2022-12-18T12:12:24;430.58;;;125.88;;
817;SDS011;391;51.052;6.954;2022-12-18T12:14:52;430.42;;;132.77;;
817;SDS011;391;51.052;6.954;2022-12-18T12:17:04;431.95;;;135.48;;
817;SDS011;391;51.052;6.954;2022-12-18T12:19:22;435.80;;;135.00;;
817;SDS011;391;51.052;6.954;2022-12-18T12:21:36;435.95;;;131.90;;
817;SDS011;391;51.052;6.954;2022-12-18T12:23:44;424.17;;;128.63;;
817;SDS011;391;51.052;6.954;2022-12-18T12:25:58;431.45;;;135.82;;
817;SDS011;391;51.052;6.954;2022-12-18T12:28:09;449.77;;;142.93;;
817;SDS011;391;51.052;6.954;2022-12-18T12:30:21;438.13;;;135.70;;
817;SDS011;391;51.052;6.954;2022-12-18T12:32:38;432.33;;;135.00;;
817;SDS011;391;51.052;6.954;2022-12-18T12:34:51;436.58;;;128.52;;
817;SDS011;391;51.052;6.954;2022-12-18T12:37:14;431.33;;;130.77;;
817;SDS011;391;51.052;6.954;2022-12-18T12:39:27;434.60;;;128.13;;
817;SDS011;391;51.052;6.954;2022-12-18T12:41:34;438.27;;;134.52;;
817;SDS011;391;51.052;6.954;2022-12-18T12:43:57;441.15;;;138.57;;
817;SDS011;391;51.052;6.954;2022-12-18T12:46:05;421.83;;;121.72;;
817;SDS011;391;51.052;6.954;2022-12-18T12:48:14;432.67;;;124.72;;